createdAt,value
2024-05-09T00:00:03.651Z,1251.95
2024-05-09T00:00:42.377Z,1253.40
2024-05-09T00:01:15.689Z,1244.15
2024-05-09T00:01:48.606Z,1250.30
2024-05-09T00:02:22.232Z,1240.70
2024-05-09T00:02:55.109Z,1242.40
2024-05-09T00:03:28.056Z,1244.00
2024-05-09T00:04:00.971Z,1241.00
2024-05-09T00:04:33.851Z,1234.88
2024-05-09T00:05:07.355Z,1226.53
2024-05-09T00:05:44.202Z,1249.13
2024-05-09T00:06:17.401Z,1233.73
2024-05-09T00:06:50.335Z,1235.53
2024-05-09T00:07:23.070Z,1240.80
2024-05-09T00:07:56.676Z,1251.18
2024-05-09T00:08:29.555Z,1242.65
2024-05-09T00:09:02.552Z,1232.10
2024-05-09T00:09:35.373Z,1233.43
2024-05-09T00:10:11.818Z,1236.07
2024-05-09T00:10:51.181Z,1241.60
2024-05-09T00:11:24.116Z,1232.32
2024-05-09T00:11:57.118Z,1228.13
2024-05-09T00:12:29.918Z,1239.28
2024-05-09T00:13:03.024Z,1233.80
2024-05-09T00:13:35.844Z,1232.40
2024-05-09T00:14:08.709Z,1242.38
2024-05-09T00:14:41.471Z,1242.68
2024-05-09T00:15:14.243Z,1247.88
2024-05-09T00:15:46.970Z,1247.70
2024-05-09T00:16:19.721Z,1241.80
2024-05-09T00:16:52.501Z,1239.97
2024-05-09T00:17:25.402Z,1233.80
2024-05-09T00:17:58.474Z,1232.75
2024-05-09T00:18:33.517Z,1244.95
2024-05-09T00:19:08.159Z,1240.20
2024-05-09T00:19:40.950Z,1248.43
2024-05-09T00:20:20.191Z,1233.43
2024-05-09T00:20:57.156Z,1224.65
2024-05-09T00:21:29.957Z,1233.57
2024-05-09T00:22:02.678Z,1223.15
2024-05-09T00:22:35.411Z,1228.25
2024-05-09T00:23:09.172Z,1219.13
2024-05-09T00:23:42.292Z,1222.40
2024-05-09T00:24:15.114Z,1215.13
2024-05-09T00:24:49.540Z,1223.25
2024-05-09T00:25:22.301Z,1219.82
2024-05-09T00:25:55.095Z,1212.63
2024-05-09T00:26:27.924Z,1212.80
2024-05-09T00:27:00.831Z,1209.50
2024-05-09T00:27:33.665Z,1207.78
2024-05-09T00:28:06.696Z,1215.35
2024-05-09T00:28:39.529Z,1227.43
2024-05-09T00:29:12.308Z,1213.80
2024-05-09T00:29:45.103Z,1223.38
2024-05-09T00:30:24.463Z,1230.38
2024-05-09T00:31:04.481Z,1210.70
2024-05-09T00:31:37.222Z,1219.15
2024-05-09T00:32:10.214Z,1221.97
2024-05-09T00:32:43.372Z,1218.25
2024-05-09T00:33:16.498Z,1214.50
2024-05-09T00:33:49.633Z,1211.20
2024-05-09T00:34:23.383Z,1216.63
2024-05-09T00:34:56.350Z,1204.05
2024-05-09T00:35:29.186Z,1198.82
2024-05-09T00:36:01.980Z,1214.85
2024-05-09T00:36:34.743Z,1213.30
2024-05-09T00:37:07.444Z,1213.78
2024-05-09T00:37:40.244Z,1221.60
2024-05-09T00:38:13.082Z,1200.03
2024-05-09T00:38:47.723Z,1200.82
2024-05-09T00:39:20.529Z,1205.47
2024-05-09T00:39:53.591Z,1213.17
2024-05-09T00:40:35.617Z,1208.95
2024-05-09T00:41:12.454Z,1176.75
2024-05-09T00:41:45.346Z,1187.57
2024-05-09T00:42:18.131Z,1227.85
2024-05-09T00:42:50.970Z,1237.20
2024-05-09T00:43:23.746Z,1221.85
2024-05-09T00:43:56.566Z,1241.88
2024-05-09T00:44:29.822Z,1234.25
2024-05-09T00:45:02.629Z,1235.70
2024-05-09T00:45:36.019Z,1240.53
2024-05-09T00:46:10.240Z,1232.30
2024-05-09T00:46:43.223Z,1240.80
2024-05-09T00:47:16.139Z,1240.60
2024-05-09T00:47:49.179Z,1235.97
2024-05-09T00:48:22.387Z,1226.70
2024-05-09T00:48:57.250Z,1225.82
2024-05-09T00:49:30.357Z,1227.95
2024-05-09T00:50:04.217Z,1231.20
2024-05-09T00:50:39.101Z,1238.03
2024-05-09T00:51:12.236Z,1231.33
2024-05-09T00:51:46.071Z,1245.57
2024-05-09T00:52:18.888Z,1222.25
2024-05-09T00:52:51.645Z,1235.65
2024-05-09T00:53:24.496Z,1254.93
2024-05-09T00:53:57.451Z,1230.22
2024-05-09T00:54:30.332Z,1243.80
2024-05-09T00:55:03.169Z,1234.20
2024-05-09T00:55:37.450Z,1237.63
2024-05-09T00:56:12.010Z,1245.20
2024-05-09T00:56:45.100Z,1238.13
2024-05-09T00:57:18.111Z,1243.13
2024-05-09T00:57:51.530Z,1240.47
2024-05-09T00:58:26.664Z,1243.03
2024-05-09T00:58:59.467Z,1234.25
2024-05-09T00:59:32.758Z,1242.03
2024-05-09T01:00:18.447Z,1248.10
2024-05-09T01:01:01.181Z,1219.82
2024-05-09T01:01:34.852Z,1234.05
2024-05-09T01:02:07.622Z,1239.63
2024-05-09T01:02:41.307Z,1237.53
2024-05-09T01:03:14.739Z,1235.07
2024-05-09T01:03:50.490Z,1239.38
2024-05-09T01:04:23.941Z,1250.90
2024-05-09T01:04:57.049Z,1251.88
2024-05-09T01:05:30.307Z,1240.65
2024-05-09T01:06:03.213Z,1246.47
2024-05-09T01:06:35.999Z,1252.80
2024-05-09T01:07:11.534Z,1250.65
2024-05-09T01:07:44.283Z,1244.68
2024-05-09T01:08:17.057Z,1248.07
2024-05-09T01:08:49.902Z,1251.65
2024-05-09T01:09:22.641Z,1239.97
2024-05-09T01:09:56.119Z,1248.45
2024-05-09T01:10:34.426Z,1251.07
2024-05-09T01:11:08.722Z,1241.00
2024-05-09T01:11:41.672Z,1260.68
2024-05-09T01:12:14.678Z,1241.50
2024-05-09T01:12:47.603Z,1248.05
2024-05-09T01:13:20.533Z,1237.22
2024-05-09T01:13:53.313Z,1240.30
2024-05-09T01:14:26.203Z,1241.88
2024-05-09T01:14:58.980Z,1243.00
2024-05-09T01:15:31.983Z,1253.47
2024-05-09T01:16:04.975Z,1255.65
2024-05-09T01:16:37.965Z,1251.50
2024-05-09T01:17:10.863Z,1258.57
2024-05-09T01:17:43.867Z,1236.80
2024-05-09T01:18:17.294Z,1239.45
2024-05-09T01:18:50.468Z,1248.43
2024-05-09T01:19:30.364Z,1250.87
2024-05-09T01:20:04.250Z,1245.70
2024-05-09T01:20:42.449Z,1243.28
2024-05-09T01:21:17.588Z,1238.35
2024-05-09T01:21:50.359Z,1245.35
2024-05-09T01:22:24.186Z,1229.18
2024-05-09T01:22:57.782Z,1234.85
2024-05-09T01:23:30.723Z,1237.13
2024-05-09T01:24:04.474Z,1231.72
2024-05-09T01:24:37.211Z,1236.45
2024-05-09T01:25:09.872Z,1240.03
2024-05-09T01:25:42.705Z,1233.07
2024-05-09T01:26:15.557Z,1246.35
2024-05-09T01:26:48.758Z,1245.68
2024-05-09T01:27:22.488Z,1242.85
2024-05-09T01:27:55.244Z,1248.85
2024-05-09T01:28:27.986Z,1242.70
2024-05-09T01:29:01.040Z,1244.85
2024-05-09T01:29:34.050Z,1247.22
2024-05-09T01:30:09.464Z,1247.18
2024-05-09T01:30:44.855Z,1231.10
2024-05-09T01:31:17.636Z,1231.93
2024-05-09T01:31:52.506Z,1226.07
2024-05-09T01:32:25.505Z,1220.13
2024-05-09T01:32:58.682Z,1232.30
2024-05-09T01:33:31.916Z,1228.75
2024-05-09T01:34:04.867Z,1221.60
2024-05-09T01:34:37.722Z,1218.78
2024-05-09T01:35:10.541Z,1225.10
2024-05-09T01:35:43.471Z,1229.72
2024-05-09T01:36:16.315Z,1226.80
2024-05-09T01:36:50.129Z,1224.18
2024-05-09T01:37:22.850Z,1222.80
2024-05-09T01:37:55.656Z,1241.47
2024-05-09T01:38:28.551Z,1237.65
2024-05-09T01:39:01.430Z,1224.03
2024-05-09T01:39:34.310Z,1233.75
2024-05-09T01:40:12.272Z,1245.07
2024-05-09T01:40:49.090Z,1229.28
2024-05-09T01:41:21.883Z,1221.88
2024-05-09T01:41:54.838Z,1211.87
2024-05-09T01:42:27.576Z,1225.55
2024-05-09T01:43:00.620Z,1212.35
2024-05-09T01:43:33.433Z,1216.35
2024-05-09T01:44:06.220Z,1235.50
2024-05-09T01:44:39.070Z,1216.40
2024-05-09T01:45:12.743Z,1212.38
2024-05-09T01:45:45.493Z,1209.43
2024-05-09T01:46:19.666Z,1205.60
2024-05-09T01:46:54.000Z,1203.43
2024-05-09T01:47:26.980Z,1216.57
2024-05-09T01:48:00.018Z,1202.95
2024-05-09T01:48:33.204Z,1202.22
2024-05-09T01:49:06.250Z,1218.10
2024-05-09T01:49:40.341Z,1231.25
2024-05-09T01:50:16.385Z,1227.72
2024-05-09T01:50:49.303Z,1213.70
2024-05-09T01:51:22.142Z,1226.82
2024-05-09T01:51:54.823Z,1222.38
2024-05-09T01:52:27.537Z,1220.75
2024-05-09T01:53:00.253Z,1217.33
2024-05-09T01:53:33.229Z,1227.40
2024-05-09T01:54:06.748Z,1225.63
2024-05-09T01:54:39.549Z,1231.38
2024-05-09T01:55:12.287Z,1214.80
2024-05-09T01:55:45.291Z,1220.35
2024-05-09T01:56:18.045Z,1221.28
2024-05-09T01:56:50.789Z,1220.50
2024-05-09T01:57:24.175Z,1227.43
2024-05-09T01:57:57.798Z,1218.43
2024-05-09T01:58:30.532Z,1213.83
2024-05-09T01:59:03.362Z,1226.13
2024-05-09T01:59:36.825Z,1216.18
2024-05-09T02:00:10.488Z,1226.75
2024-05-09T02:00:44.768Z,1223.40
2024-05-09T02:01:17.641Z,1224.88
2024-05-09T02:01:56.741Z,1219.88
2024-05-09T02:02:30.678Z,1211.85
2024-05-09T02:03:03.728Z,1220.40
2024-05-09T02:03:36.671Z,1215.25
2024-05-09T02:04:09.710Z,1212.20
2024-05-09T02:04:42.745Z,1219.55
2024-05-09T02:05:15.691Z,1237.25
2024-05-09T02:05:50.259Z,1221.03
2024-05-09T02:06:23.270Z,1233.65
2024-05-09T02:06:56.115Z,1222.35
2024-05-09T02:07:28.843Z,1242.90
2024-05-09T02:08:01.814Z,1235.28
2024-05-09T02:08:35.426Z,1245.20
2024-05-09T02:09:08.757Z,1226.95
2024-05-09T02:09:41.581Z,1242.87
2024-05-09T02:10:20.418Z,1228.63
2024-05-09T02:10:58.851Z,1234.63
2024-05-09T02:11:31.823Z,1240.60
2024-05-09T02:12:04.803Z,1245.18
2024-05-09T02:12:39.762Z,1223.95
2024-05-09T02:13:12.966Z,1231.68
2024-05-09T02:13:45.669Z,1229.22
2024-05-09T02:14:20.435Z,1239.80
2024-05-09T02:14:53.160Z,1226.90
2024-05-09T02:15:25.912Z,1235.03
2024-05-09T02:15:58.719Z,1246.40
2024-05-09T02:16:31.397Z,1248.97
2024-05-09T02:17:04.381Z,1236.72
2024-05-09T02:17:37.459Z,1256.20
2024-05-09T02:18:11.082Z,1257.35
2024-05-09T02:18:44.263Z,1254.22
2024-05-09T02:19:17.176Z,1252.40
2024-05-09T02:19:49.991Z,1240.78
2024-05-09T02:20:30.559Z,1262.50
2024-05-09T02:21:09.450Z,1235.03
2024-05-09T02:21:42.233Z,1252.80
2024-05-09T02:22:14.988Z,1251.70
2024-05-09T02:22:47.724Z,1264.43
2024-05-09T02:23:20.646Z,1259.10
2024-05-09T02:23:53.357Z,1256.45
2024-05-09T02:24:26.068Z,1257.10
2024-05-09T02:24:58.817Z,1253.00
2024-05-09T02:25:32.237Z,1258.82
2024-05-09T02:26:05.263Z,1263.70
2024-05-09T02:26:38.064Z,1251.57
2024-05-09T02:27:10.782Z,1261.72
2024-05-09T02:27:43.678Z,1265.60
2024-05-09T02:28:16.496Z,1269.72
2024-05-09T02:28:49.326Z,1277.50
2024-05-09T02:29:22.118Z,1260.47
2024-05-09T02:29:55.048Z,1267.85
2024-05-09T02:30:37.935Z,1269.35
2024-05-09T02:31:13.770Z,1260.43
2024-05-09T02:31:46.577Z,1257.25
2024-05-09T02:32:19.500Z,1251.53
2024-05-09T02:32:53.294Z,1255.05
2024-05-09T02:33:26.258Z,1266.00
2024-05-09T02:33:59.289Z,1276.97
2024-05-09T02:34:32.286Z,1272.72
2024-05-09T02:35:05.203Z,1261.65
2024-05-09T02:35:38.234Z,1277.07
2024-05-09T02:36:12.786Z,1274.50
2024-05-09T02:36:45.515Z,1264.45
2024-05-09T02:37:18.301Z,1261.32
2024-05-09T02:37:51.319Z,1276.97
2024-05-09T02:38:24.639Z,1266.63
2024-05-09T02:38:57.423Z,1265.38
2024-05-09T02:39:30.214Z,1273.70
2024-05-09T02:40:03.410Z,1279.93
2024-05-09T02:40:38.559Z,1269.30
2024-05-09T02:41:12.653Z,1263.28
2024-05-09T02:41:45.446Z,1264.97
2024-05-09T02:42:18.203Z,1278.03
2024-05-09T02:42:50.991Z,1275.18
2024-05-09T02:43:23.670Z,1280.87
2024-05-09T02:43:57.397Z,1280.70
2024-05-09T02:44:30.207Z,1277.88
2024-05-09T02:45:03.047Z,1276.95
2024-05-09T02:45:35.843Z,1280.90
2024-05-09T02:46:08.561Z,1271.25
2024-05-09T02:46:41.305Z,1285.75
2024-05-09T02:47:15.656Z,1279.95
2024-05-09T02:47:48.723Z,1277.38
2024-05-09T02:48:21.764Z,1282.32
2024-05-09T02:48:54.762Z,1274.07
2024-05-09T02:49:27.776Z,1289.57
2024-05-09T02:50:00.721Z,1280.22
2024-05-09T02:50:38.341Z,1299.40
2024-05-09T02:51:12.710Z,1272.63
2024-05-09T02:51:45.530Z,1287.15
2024-05-09T02:52:19.185Z,1280.45
2024-05-09T02:52:52.154Z,1270.50
2024-05-09T02:53:24.954Z,1272.60
2024-05-09T02:53:57.734Z,1257.75
2024-05-09T02:54:30.472Z,1268.73
2024-05-09T02:55:03.207Z,1264.85
2024-05-09T02:55:35.942Z,1269.65
2024-05-09T02:56:08.624Z,1276.35
2024-05-09T02:56:41.523Z,1282.00
2024-05-09T02:57:15.175Z,1264.10
2024-05-09T02:57:48.089Z,1280.28
2024-05-09T02:58:20.818Z,1266.47
2024-05-09T02:58:53.612Z,1278.70
2024-05-09T02:59:26.448Z,1271.22
2024-05-09T02:59:59.347Z,1275.33
2024-05-09T03:00:38.559Z,1262.22
2024-05-09T03:01:13.945Z,1259.57
2024-05-09T03:01:46.837Z,1268.43
2024-05-09T03:02:19.853Z,1260.97
2024-05-09T03:02:52.851Z,1264.13
2024-05-09T03:03:26.124Z,1265.82
2024-05-09T03:03:59.231Z,1276.05
2024-05-09T03:04:32.287Z,1269.18
2024-05-09T03:05:05.330Z,1273.20
2024-05-09T03:05:38.369Z,1280.83
2024-05-09T03:06:11.299Z,1263.95
2024-05-09T03:06:44.116Z,1272.82
2024-05-09T03:07:19.725Z,1264.40
2024-05-09T03:07:52.867Z,1262.47
2024-05-09T03:08:27.748Z,1272.88
2024-05-09T03:09:01.212Z,1254.55
2024-05-09T03:09:34.418Z,1273.35
2024-05-09T03:10:12.156Z,1271.57
2024-05-09T03:10:51.564Z,1246.88
2024-05-09T03:11:24.674Z,1249.33
2024-05-09T03:11:57.641Z,1260.88
2024-05-09T03:12:30.423Z,1264.05
2024-05-09T03:13:10.123Z,1257.90
2024-05-09T03:13:42.867Z,1261.90
2024-05-09T03:14:18.823Z,1268.90
2024-05-09T03:14:51.621Z,1267.90
2024-05-09T03:15:24.360Z,1280.65
2024-05-09T03:15:57.157Z,1264.55
2024-05-09T03:16:29.894Z,1249.85
2024-05-09T03:17:02.768Z,1277.27
2024-05-09T03:17:35.869Z,1279.35
2024-05-09T03:18:09.173Z,1270.45
2024-05-09T03:18:42.236Z,1270.28
2024-05-09T03:19:15.072Z,1283.70
2024-05-09T03:19:47.784Z,1264.38
2024-05-09T03:20:27.290Z,1263.47
2024-05-09T03:21:03.672Z,1269.13
2024-05-09T03:21:42.376Z,1255.15
2024-05-09T03:22:15.116Z,1261.45
2024-05-09T03:22:47.948Z,1258.97
2024-05-09T03:23:20.793Z,1262.22
2024-05-09T03:23:53.700Z,1255.63
2024-05-09T03:24:26.432Z,1276.45
2024-05-09T03:24:59.210Z,1270.78
2024-05-09T03:25:31.953Z,1264.20
2024-05-09T03:26:04.844Z,1275.03
2024-05-09T03:26:37.858Z,1271.82
2024-05-09T03:27:10.673Z,1268.30
2024-05-09T03:27:43.473Z,1264.47
2024-05-09T03:28:16.255Z,1267.03
2024-05-09T03:28:49.154Z,1269.82
2024-05-09T03:29:22.016Z,1273.13
2024-05-09T03:29:54.836Z,1283.45
2024-05-09T03:30:36.228Z,1270.93
2024-05-09T03:31:13.961Z,1110.20
2024-05-09T03:31:46.775Z,1116.25
2024-05-09T03:32:20.492Z,1115.32
2024-05-09T03:32:53.460Z,1139.78
2024-05-09T03:33:26.684Z,1131.25
2024-05-09T03:33:59.805Z,1191.80
2024-05-09T03:34:32.762Z,1251.95
2024-05-09T03:35:07.499Z,1253.15
2024-05-09T03:35:40.386Z,1264.82
2024-05-09T03:36:13.167Z,1270.32
2024-05-09T03:36:45.910Z,1265.30
2024-05-09T03:37:18.688Z,1276.43
2024-05-09T03:37:51.551Z,1264.18
2024-05-09T03:38:24.405Z,1265.65
2024-05-09T03:38:57.175Z,1251.40
2024-05-09T03:39:29.908Z,1254.17
2024-05-09T03:40:02.856Z,1259.47
2024-05-09T03:40:36.641Z,1256.20
2024-05-09T03:41:09.700Z,1259.53
2024-05-09T03:41:42.574Z,1271.50
2024-05-09T03:42:15.373Z,1263.55
2024-05-09T03:42:48.303Z,1274.90
2024-05-09T03:43:21.184Z,1278.38
2024-05-09T03:43:53.914Z,1274.70
2024-05-09T03:44:26.794Z,1285.13
2024-05-09T03:44:59.717Z,1282.90
2024-05-09T03:45:32.503Z,1287.28
2024-05-09T03:46:06.101Z,1284.80
2024-05-09T03:46:39.259Z,1273.03
2024-05-09T03:47:12.244Z,1287.20
2024-05-09T03:47:45.358Z,1281.22
2024-05-09T03:48:18.656Z,1287.00
2024-05-09T03:48:51.729Z,1294.03
2024-05-09T03:49:24.938Z,1289.15
2024-05-09T03:49:57.858Z,1298.65
2024-05-09T03:50:35.390Z,1289.90
2024-05-09T03:51:09.340Z,1281.03
2024-05-09T03:51:42.637Z,1282.50
2024-05-09T03:52:15.381Z,1290.88
2024-05-09T03:52:48.475Z,1288.30
2024-05-09T03:53:23.051Z,1283.05
2024-05-09T03:53:55.971Z,1290.75
2024-05-09T03:54:28.746Z,1275.60
2024-05-09T03:55:02.915Z,1283.78
2024-05-09T03:55:35.743Z,1283.00
2024-05-09T03:56:08.774Z,1285.07
2024-05-09T03:56:41.684Z,1267.78
2024-05-09T03:57:14.440Z,1277.88
2024-05-09T03:57:47.297Z,1291.10
2024-05-09T03:58:20.624Z,1289.25
2024-05-09T03:58:53.445Z,1278.35
2024-05-09T03:59:26.302Z,1289.00
2024-05-09T03:59:59.024Z,1278.20
2024-05-09T04:00:38.052Z,1296.07
2024-05-09T04:01:12.479Z,1275.10
2024-05-09T04:01:45.476Z,1268.53
2024-05-09T04:02:18.456Z,1290.57
2024-05-09T04:02:51.485Z,1272.57
2024-05-09T04:03:26.198Z,1271.78
2024-05-09T04:03:59.177Z,1279.90
2024-05-09T04:04:32.114Z,1284.93
2024-05-09T04:05:05.160Z,1282.50
2024-05-09T04:05:40.432Z,1279.32
2024-05-09T04:06:20.236Z,1265.57
2024-05-09T04:06:53.894Z,1263.50
2024-05-09T04:07:26.638Z,1275.30
2024-05-09T04:07:59.305Z,1288.72
2024-05-09T04:08:32.175Z,1253.93
2024-05-09T04:09:05.843Z,1279.70
2024-05-09T04:09:40.326Z,1284.85
2024-05-09T04:10:21.128Z,1270.82
2024-05-09T04:11:01.126Z,1280.90
2024-05-09T04:11:34.187Z,1283.05
2024-05-09T04:12:08.293Z,1275.60
2024-05-09T04:12:41.908Z,1268.28
2024-05-09T04:13:14.675Z,1280.57
2024-05-09T04:13:47.504Z,1273.65
2024-05-09T04:14:20.589Z,1278.43
2024-05-09T04:14:53.583Z,1276.70
2024-05-09T04:15:26.439Z,1286.30
2024-05-09T04:15:59.197Z,1275.32
2024-05-09T04:16:31.928Z,1268.18
2024-05-09T04:17:05.668Z,1264.72
2024-05-09T04:17:38.657Z,1263.15
2024-05-09T04:18:12.379Z,1274.63
2024-05-09T04:18:45.324Z,1263.07
2024-05-09T04:19:18.302Z,1262.18
2024-05-09T04:19:51.231Z,1267.60
2024-05-09T04:20:33.635Z,1282.63
2024-05-09T04:21:11.368Z,1255.88
2024-05-09T04:21:44.180Z,1261.40
2024-05-09T04:22:17.511Z,1254.00
2024-05-09T04:22:50.416Z,1265.72
2024-05-09T04:23:23.223Z,1259.95
2024-05-09T04:23:56.047Z,1276.53
2024-05-09T04:24:28.826Z,1271.27
2024-05-09T04:25:01.561Z,1266.53
2024-05-09T04:25:34.451Z,1260.47
2024-05-09T04:26:08.846Z,1282.00
2024-05-09T04:26:41.583Z,1270.88
2024-05-09T04:27:14.366Z,1265.63
2024-05-09T04:27:47.107Z,1270.03
2024-05-09T04:28:21.586Z,1270.57
2024-05-09T04:28:54.355Z,1276.53
2024-05-09T04:29:27.220Z,1262.65
2024-05-09T04:30:00.129Z,1264.97
2024-05-09T04:30:38.629Z,1265.60
2024-05-09T04:31:13.752Z,1262.07
2024-05-09T04:31:46.545Z,1261.38
2024-05-09T04:32:19.298Z,1289.70
2024-05-09T04:32:52.258Z,1271.13
2024-05-09T04:33:25.461Z,1274.22
2024-05-09T04:33:58.561Z,1287.25
2024-05-09T04:34:31.488Z,1266.53
2024-05-09T04:35:05.535Z,1265.63
2024-05-09T04:35:38.629Z,1270.00
2024-05-09T04:36:11.634Z,1267.75
2024-05-09T04:36:45.259Z,1270.50
2024-05-09T04:37:18.066Z,1272.20
2024-05-09T04:37:50.835Z,1282.13
2024-05-09T04:38:23.720Z,1288.55
2024-05-09T04:38:56.483Z,1285.55
2024-05-09T04:39:29.311Z,1278.07
2024-05-09T04:40:02.290Z,1273.60
2024-05-09T04:40:37.078Z,1274.35
2024-05-09T04:41:10.889Z,1262.57
2024-05-09T04:41:43.748Z,1274.53
2024-05-09T04:42:16.498Z,1268.75
2024-05-09T04:42:49.303Z,1297.22
2024-05-09T04:43:22.379Z,1278.93
2024-05-09T04:43:55.223Z,1275.25
2024-05-09T04:44:28.166Z,1269.05
2024-05-09T04:45:01.070Z,1278.65
2024-05-09T04:45:33.835Z,1298.57
2024-05-09T04:46:06.620Z,1290.57
2024-05-09T04:46:42.286Z,1280.77
2024-05-09T04:47:15.356Z,1290.45
2024-05-09T04:47:48.443Z,1270.22
2024-05-09T04:48:21.520Z,1301.32
2024-05-09T04:48:54.646Z,1288.90
2024-05-09T04:49:27.614Z,1288.78
2024-05-09T04:50:00.626Z,1293.15
2024-05-09T04:50:37.443Z,1283.13
2024-05-09T04:51:12.025Z,1291.28
2024-05-09T04:51:44.757Z,1284.88
2024-05-09T04:52:17.487Z,1305.13
2024-05-09T04:52:50.321Z,1287.00
2024-05-09T04:53:23.093Z,1293.43
2024-05-09T04:53:55.837Z,1291.15
2024-05-09T04:54:35.804Z,1293.78
2024-05-09T04:55:10.282Z,1278.72
2024-05-09T04:55:43.401Z,1288.35
2024-05-09T04:56:17.179Z,1301.85
2024-05-09T04:56:50.048Z,1302.35
2024-05-09T04:57:22.749Z,1290.68
2024-05-09T04:57:55.542Z,1306.63
2024-05-09T04:58:28.212Z,1287.30
2024-05-09T04:59:01.009Z,1287.72
2024-05-09T04:59:33.981Z,1304.00
2024-05-09T05:00:11.561Z,1294.80
2024-05-09T05:00:47.521Z,1292.32
2024-05-09T05:01:20.389Z,1280.43
2024-05-09T05:01:53.300Z,1289.15
2024-05-09T05:02:26.234Z,1288.10
2024-05-09T05:02:59.479Z,1297.47
2024-05-09T05:03:32.786Z,1305.93
2024-05-09T05:04:05.890Z,1304.97
2024-05-09T05:04:38.768Z,1306.60
2024-05-09T05:05:12.152Z,1306.60
2024-05-09T05:05:46.077Z,1304.63
2024-05-09T05:06:19.345Z,1293.43
2024-05-09T05:06:52.905Z,1296.50
2024-05-09T05:07:25.646Z,1291.28
2024-05-09T05:07:58.574Z,1288.15
2024-05-09T05:08:31.710Z,1296.28
2024-05-09T05:09:05.936Z,1282.53
2024-05-09T05:09:39.969Z,1287.95
2024-05-09T05:10:17.917Z,1298.40
2024-05-09T05:10:58.001Z,1295.55
2024-05-09T05:11:30.952Z,1303.95
2024-05-09T05:12:23.933Z,1297.03
2024-05-09T05:13:15.499Z,1278.10
2024-05-09T05:13:48.277Z,1274.93
2024-05-09T05:14:21.046Z,1272.30
2024-05-09T05:14:53.846Z,1279.05
2024-05-09T05:15:26.687Z,1280.37
2024-05-09T05:16:00.615Z,1294.93
2024-05-09T05:16:33.385Z,1287.53
2024-05-09T05:17:06.191Z,1299.10
2024-05-09T05:17:42.980Z,1306.18
2024-05-09T05:18:16.431Z,1298.38
2024-05-09T05:18:49.572Z,1305.90
2024-05-09T05:19:22.498Z,1290.78
2024-05-09T05:19:55.483Z,1287.97
2024-05-09T05:20:33.482Z,1287.68
2024-05-09T05:21:06.992Z,1292.13
2024-05-09T05:21:39.810Z,1306.47
2024-05-09T05:22:12.544Z,1286.45
2024-05-09T05:22:45.337Z,1301.20
2024-05-09T05:23:21.829Z,1309.13
2024-05-09T05:23:54.691Z,1301.40
2024-05-09T05:24:27.466Z,1305.65
2024-05-09T05:25:00.194Z,1309.03
2024-05-09T05:25:32.947Z,1312.30
2024-05-09T05:26:05.904Z,1315.45
2024-05-09T05:26:40.042Z,1328.33
2024-05-09T05:27:15.647Z,1315.07
2024-05-09T05:27:48.394Z,1318.50
2024-05-09T05:28:21.236Z,1309.28
2024-05-09T05:28:54.156Z,1321.45
2024-05-09T05:29:26.997Z,1314.82
2024-05-09T05:29:59.915Z,1310.65
2024-05-09T05:30:34.681Z,1327.03
2024-05-09T05:31:07.969Z,1325.45
2024-05-09T05:31:40.778Z,1317.55
2024-05-09T05:32:13.785Z,1323.83
2024-05-09T05:32:46.710Z,1311.13
2024-05-09T05:33:20.110Z,1314.22
2024-05-09T05:33:53.252Z,1331.38
2024-05-09T05:34:26.049Z,1325.97
2024-05-09T05:34:58.823Z,1334.15
2024-05-09T05:35:31.882Z,1332.55
2024-05-09T05:36:04.742Z,1328.32
2024-05-09T05:36:37.484Z,1328.75
2024-05-09T05:37:10.221Z,1326.22
2024-05-09T05:37:42.941Z,1344.20
2024-05-09T05:38:16.727Z,1334.75
2024-05-09T05:38:49.732Z,1336.25
2024-05-09T05:39:22.628Z,1337.72
2024-05-09T05:39:55.341Z,1332.57
2024-05-09T05:40:35.421Z,1331.00
2024-05-09T05:41:11.220Z,1319.35
2024-05-09T05:41:44.078Z,1326.70
2024-05-09T05:42:16.898Z,1338.07
2024-05-09T05:42:50.148Z,1316.47
2024-05-09T05:43:22.900Z,1327.67
2024-05-09T05:43:55.705Z,1335.15
2024-05-09T05:44:28.597Z,1333.15
2024-05-09T05:45:01.495Z,1354.43
2024-05-09T05:45:34.259Z,1345.10
2024-05-09T05:46:07.009Z,1336.63
2024-05-09T05:46:40.462Z,1336.60
2024-05-09T05:47:13.361Z,1343.03
2024-05-09T05:47:46.648Z,1347.88
2024-05-09T05:48:19.861Z,1345.50
2024-05-09T05:48:52.797Z,1325.40
2024-05-09T05:49:27.417Z,1330.05
2024-05-09T05:50:00.241Z,1325.05
2024-05-09T05:50:36.501Z,1342.07
2024-05-09T05:51:10.965Z,1333.80
2024-05-09T05:51:43.734Z,1322.93
2024-05-09T05:52:16.560Z,1336.07
2024-05-09T05:52:49.264Z,1323.63
2024-05-09T05:53:22.176Z,1317.50
2024-05-09T05:53:55.416Z,1324.70
2024-05-09T05:54:28.224Z,1331.30
2024-05-09T05:55:01.095Z,1329.53
2024-05-09T05:55:33.989Z,1336.53
2024-05-09T05:56:06.829Z,1330.22
2024-05-09T05:56:39.654Z,1331.60
2024-05-09T05:57:13.866Z,1332.80
2024-05-09T05:57:46.647Z,1330.18
2024-05-09T05:58:20.481Z,1338.65
2024-05-09T05:58:53.244Z,1330.95
2024-05-09T05:59:28.221Z,1334.43
2024-05-09T06:00:01.120Z,1334.90
2024-05-09T06:00:38.686Z,1342.50
2024-05-09T06:01:13.370Z,1323.72
2024-05-09T06:01:46.274Z,1344.80
2024-05-09T06:02:19.359Z,1337.70
2024-05-09T06:02:53.289Z,1346.55
2024-05-09T06:03:26.636Z,1333.72
2024-05-09T06:03:59.659Z,1342.50
2024-05-09T06:04:32.662Z,1347.72
2024-05-09T06:05:06.037Z,1353.07
2024-05-09T06:05:46.952Z,1358.63
2024-05-09T06:06:19.916Z,1350.97
2024-05-09T06:06:52.659Z,1330.68
2024-05-09T06:07:25.413Z,1348.85
2024-05-09T06:07:58.303Z,1361.43
2024-05-09T06:08:31.266Z,1365.15
2024-05-09T06:09:04.013Z,1343.60
2024-05-09T06:09:36.758Z,1350.10
2024-05-09T06:10:17.195Z,1357.53
2024-05-09T06:10:54.383Z,1348.43
2024-05-09T06:11:28.082Z,1349.43
2024-05-09T06:12:01.061Z,1340.53
2024-05-09T06:12:33.965Z,1340.97
2024-05-09T06:13:06.779Z,1342.47
2024-05-09T06:13:42.877Z,1348.55
2024-05-09T06:14:15.813Z,1335.15
2024-05-09T06:14:48.630Z,1352.57
2024-05-09T06:15:21.363Z,1353.03
2024-05-09T06:15:54.856Z,1351.32
2024-05-09T06:16:27.663Z,1354.82
2024-05-09T06:17:00.547Z,1362.67
2024-05-09T06:17:33.613Z,1368.50
2024-05-09T06:18:07.482Z,1361.25
2024-05-09T06:18:40.607Z,1358.70
2024-05-09T06:19:13.579Z,1368.93
2024-05-09T06:19:47.366Z,1368.68
2024-05-09T06:20:31.269Z,1366.65
2024-05-09T06:21:08.231Z,1342.25
2024-05-09T06:21:40.986Z,1364.63
2024-05-09T06:22:13.812Z,1362.93
2024-05-09T06:22:46.700Z,1360.73
2024-05-09T06:23:19.664Z,1362.30
2024-05-09T06:23:53.701Z,1360.00
2024-05-09T06:24:26.438Z,1377.72
2024-05-09T06:24:59.227Z,1383.68
2024-05-09T06:25:32.817Z,1361.57
2024-05-09T06:26:05.641Z,1378.85
2024-05-09T06:26:41.667Z,1377.60
2024-05-09T06:27:14.402Z,1362.85
2024-05-09T06:27:47.106Z,1368.15
2024-05-09T06:28:19.930Z,1370.10
2024-05-09T06:28:52.756Z,1367.43
2024-05-09T06:29:25.611Z,1366.03
2024-05-09T06:29:58.523Z,1377.82
2024-05-09T06:31:10.167Z,1362.80
2024-05-09T06:31:43.588Z,1367.15
2024-05-09T06:32:16.521Z,1377.30
2024-05-09T06:32:49.321Z,1376.88
2024-05-09T06:33:22.842Z,1380.63
2024-05-09T06:33:55.893Z,1379.87
2024-05-09T06:34:28.850Z,1375.18
2024-05-09T06:35:01.729Z,1383.65
2024-05-09T06:35:34.765Z,1391.18
2024-05-09T06:36:07.762Z,1377.45
2024-05-09T06:36:40.588Z,1384.18
2024-05-09T06:37:13.395Z,1386.03
2024-05-09T06:37:46.146Z,1378.80
2024-05-09T06:38:18.982Z,1372.88
2024-05-09T06:38:51.753Z,1382.03
2024-05-09T06:39:24.920Z,1384.77
2024-05-09T06:39:57.775Z,1386.80
2024-05-09T06:40:37.239Z,1385.68
2024-05-09T06:41:12.766Z,1391.05
2024-05-09T06:41:45.537Z,1390.85
2024-05-09T06:42:18.339Z,1384.28
2024-05-09T06:42:51.041Z,1392.57
2024-05-09T06:43:23.812Z,1391.53
2024-05-09T06:43:56.622Z,1380.47
2024-05-09T06:44:29.434Z,1394.55
2024-05-09T06:45:02.460Z,1390.07
2024-05-09T06:45:37.317Z,1395.55
2024-05-09T06:46:10.086Z,1403.60
2024-05-09T06:46:42.862Z,1410.47
2024-05-09T06:47:15.754Z,1402.10
2024-05-09T06:47:48.688Z,1387.68